Time;durP1;ratioP1;P1;durP2;ratioP2;P2;SDS_P1;SDS_P2;PMS_P1;PMS_P2;Temp;Humidity;BMP_temperature;BMP_pressure;BME280_temperature;BME280_humidity;BME280_pressure;Samples;Min_cycle;Max_cycle;Signal;HPM_P1;HPM_P2
2021/10/27 00:02:23;;;;;;;10.63;4.20;;;;;;;12.53;83.25;102035.41;5096089;28;20044;-65
2021/10/27 00:04:50;;;;;;;14.57;3.90;;;;;;;12.54;83.02;102015.81;5094112;28;20066;-65
2021/10/27 00:07:17;;;;;;;9.45;3.90;;;;;;;12.55;83.77;102027.28;5095629;28;20535;-65
2021/10/27 00:09:45;;;;;;;10.73;3.70;;;;;;;12.55;83.18;102019.31;5091480;28;20558;-65
2021/10/27 00:12:11;;;;;;;9.00;4.10;;;;;;;12.50;83.75;102022.41;5095373;28;20050;-65
2021/10/27 00:14:38;;;;;;;10.35;4.15;;;;;;;12.50;83.99;102027.72;5098258;28;20035;-65
2021/10/27 00:17:06;;;;;;;10.80;3.97;;;;;;;12.51;84.33;102028.56;5085063;28;20072;-66
2021/10/27 00:19:32;;;;;;;8.90;4.32;;;;;;;12.60;84.08;102025.91;5108051;28;20432;-66
2021/10/27 00:21:59;;;;;;;10.73;4.30;;;;;;;12.54;84.19;102022.97;5094640;28;20106;-65
2021/10/27 00:24:26;;;;;;;12.48;4.25;;;;;;;12.56;84.41;102026.34;5094340;28;20044;-65
2021/10/27 00:26:53;;;;;;;10.48;4.07;;;;;;;12.51;84.46;102032.06;5096752;28;20514;-65
2021/10/27 00:29:20;;;;;;;11.45;4.55;;;;;;;12.63;83.70;102022.97;5103826;28;20037;-66
2021/10/27 00:31:46;;;;;;;9.18;4.07;;;;;;;12.52;84.19;102030.25;5085270;28;20493;-65
2021/10/27 00:34:13;;;;;;;10.20;4.00;;;;;;;12.46;84.42;102024.50;5093594;28;20040;-65
2021/10/27 00:36:40;;;;;;;11.55;4.20;;;;;;;12.52;84.13;102032.91;5093202;28;20479;-65
2021/10/27 00:39:06;;;;;;;13.13;4.00;;;;;;;12.59;84.17;102034.91;5094862;28;20493;-65
2021/10/27 00:41:33;;;;;;;9.27;3.90;;;;;;;12.48;84.48;102017.22;5094946;28;20044;-66
2021/10/27 00:44:00;;;;;;;10.48;4.03;;;;;;;12.48;85.12;102027.03;5094613;28;20568;-65
2021/10/27 00:46:27;;;;;;;11.10;4.00;;;;;;;12.61;84.31;102027.59;5094709;28;20055;-66
2021/10/27 00:48:53;;;;;;;10.95;4.30;;;;;;;12.52;84.73;102023.09;5093166;28;20036;-65
2021/10/27 00:51:20;;;;;;;10.75;3.88;;;;;;;12.52;84.74;102031.09;5094146;28;20109;-65
2021/10/27 00:53:48;;;;;;;11.90;3.70;;;;;;;12.67;84.22;102029.72;5093342;28;20051;-65
2021/10/27 00:56:16;;;;;;;13.25;4.10;;;;;;;12.60;84.08;102028.56;5094367;28;20130;-65
2021/10/27 00:58:44;;;;;;;10.75;4.20;;;;;;;12.66;83.98;102029.84;5092597;28;20032;-66
2021/10/27 01:01:11;;;;;;;10.88;3.80;;;;;;;12.63;83.87;102022.97;5094941;28;20040;-65
2021/10/27 01:03:38;;;;;;;12.35;3.92;;;;;;;12.64;83.93;102034.47;5093804;28;20036;-67
2021/10/27 01:06:05;;;;;;;13.70;4.28;;;;;;;12.54;84.37;102038.94;5093266;28;20044;-65
2021/10/27 01:08:33;;;;;;;10.80;3.67;;;;;;;12.52;84.61;102035.56;5094494;28;20055;-65
2021/10/27 01:11:00;;;;;;;13.38;4.30;;;;;;;12.61;84.07;102032.94;5090556;28;20090;-65
2021/10/27 01:13:27;;;;;;;12.20;4.05;;;;;;;12.52;84.50;102035.56;5094064;28;20036;-65
2021/10/27 01:15:54;;;;;;;12.25;4.03;;;;;;;12.44;84.78;102033.56;5111540;28;20127;-65
2021/10/27 01:18:22;;;;;;;8.40;3.97;;;;;;;12.58;84.59;102027.88;5113099;28;20043;-65
2021/10/27 01:20:49;;;;;;;12.90;4.22;;;;;;;12.48;84.91;102029.69;5114745;28;20488;-65
2021/10/27 01:23:15;;;;;;;12.63;4.43;;;;;;;12.47;84.78;102026.16;5096820;28;20048;-65
2021/10/27 01:25:42;;;;;;;11.48;4.25;;;;;;;12.44;84.89;102025.59;5114361;28;20447;-65
2021/10/27 01:28:09;;;;;;;12.30;4.43;;;;;;;12.51;84.88;102024.06;5092106;28;20040;-65
2021/10/27 01:30:36;;;;;;;10.27;4.25;;;;;;;12.64;83.89;102024.69;5083665;28;20039;-65
2021/10/27 01:33:03;;;;;;;14.30;3.72;;;;;;;12.65;83.82;102022.84;5093232;28;20278;-65
2021/10/27 01:35:30;;;;;;;13.35;4.88;;;;;;;12.51;84.61;102024.06;5092205;28;20404;-66
2021/10/27 01:37:57;;;;;;;11.90;4.18;;;;;;;12.57;84.59;102020.88;5075903;28;20485;-65
2021/10/27 01:40:24;;;;;;;13.20;4.53;;;;;;;12.70;83.76;102020.63;5092210;28;20094;-65
2021/10/27 01:42:53;;;;;;;12.20;4.28;;;;;;;12.59;84.54;102024.25;5093442;28;20496;-65
2021/10/27 01:45:20;;;;;;;11.45;4.75;;;;;;;12.62;84.25;102017.78;5092002;28;20052;-66
2021/10/27 01:47:47;;;;;;;12.32;4.57;;;;;;;12.59;84.54;102023.41;5093593;28;20040;-65
2021/10/27 01:50:15;;;;;;;14.40;4.68;;;;;;;12.57;84.57;102017.34;5093201;28;20036;-65
2021/10/27 01:52:42;;;;;;;14.52;4.90;;;;;;;12.68;84.24;102012.78;5080876;28;20048;-65
2021/10/27 01:55:09;;;;;;;16.27;4.53;;;;;;;12.68;84.07;102007.44;5092190;28;20117;-66
2021/10/27 01:57:36;;;;;;;10.18;4.65;;;;;;;12.65;84.06;102010.38;5092050;28;20093;-66
2021/10/27 02:00:05;;;;;;;10.50;4.60;;;;;;;12.62;84.06;102009.81;5092743;28;20036;-65
2021/10/27 02:02:49;;;;;;;13.10;5.35;;;;;;;12.71;83.60;102013.47;5089875;28;20381;-64
2021/10/27 02:05:16;;;;;;;14.38;5.10;;;;;;;12.66;83.83;102005.88;5086609;28;20101;-66
2021/10/27 02:07:43;;;;;;;11.88;5.60;;;;;;;12.56;83.89;102003.22;5089524;28;20048;-66
2021/10/27 02:10:13;;;;;;;13.57;5.30;;;;;;;12.64;83.71;101997.19;5089403;28;20043;-66
2021/10/27 02:12:42;;;;;;;16.50;5.35;;;;;;;12.69;83.54;101997.63;5073202;28;20040;-66
2021/10/27 02:15:10;;;;;;;15.95;5.30;;;;;;;12.68;83.28;102003.97;5069141;28;20094;-65
2021/10/27 02:17:38;;;;;;;14.68;5.38;;;;;;;12.62;84.04;102002.66;5079610;28;20037;-66
2021/10/27 02:20:06;;;;;;;17.73;5.70;;;;;;;12.65;83.94;101998.91;5071584;28;20132;-66
2021/10/27 02:22:34;;;;;;;14.23;5.38;;;;;;;12.65;83.43;101998.91;5089383;28;20032;-66
2021/10/27 02:25:01;;;;;;;13.23;5.40;;;;;;;12.74;83.30;102003.41;5088826;28;20428;-66
2021/10/27 02:27:28;;;;;;;13.23;5.28;;;;;;;12.78;82.86;101998.63;5088038;28;20036;-66
2021/10/27 02:29:55;;;;;;;12.10;5.25;;;;;;;12.66;83.24;101993.44;5076293;28;20452;-66
2021/10/27 02:32:22;;;;;;;18.00;5.22;;;;;;;12.74;82.99;101997.22;5072786;28;20043;-66
2021/10/27 02:34:48;;;;;;;17.15;5.18;;;;;;;12.72;82.95;102000.03;5066214;28;20107;-66
2021/10/27 02:37:15;;;;;;;14.43;5.28;;;;;;;12.62;83.33;101994.66;5068390;28;20429;-67
2021/10/27 02:39:42;;;;;;;14.43;5.63;;;;;;;12.67;82.74;101995.09;5085784;28;20053;-66
2021/10/27 02:42:09;;;;;;;11.43;5.03;;;;;;;12.66;82.80;101995.22;5067010;28;20049;-66
2021/10/27 02:44:36;;;;;;;13.45;5.70;;;;;;;12.62;83.55;102004.47;5073260;28;20037;-66
2021/10/27 02:47:04;;;;;;;17.90;5.57;;;;;;;12.64;83.81;101998.06;5078855;28;20102;-66
2021/10/27 02:49:31;;;;;;;17.75;5.35;;;;;;;12.63;83.96;101993.69;5070649;28;20508;-66
2021/10/27 02:51:58;;;;;;;16.98;5.75;;;;;;;12.64;84.05;101999.84;5086853;28;20041;-66
2021/10/27 02:54:24;;;;;;;16.35;5.90;;;;;;;12.64;83.89;101995.41;5073860;28;20056;-66
2021/10/27 02:56:51;;;;;;;15.40;5.78;;;;;;;12.67;83.47;101995.09;5088310;28;20063;-66
2021/10/27 02:59:18;;;;;;;17.98;6.40;;;;;;;12.79;82.92;101998.50;5088245;28;20497;-66
2021/10/27 03:01:44;;;;;;;18.05;5.50;;;;;;;12.70;83.33;102003.78;5087798;28;20040;-66
2021/10/27 03:04:11;;;;;;;17.70;5.47;;;;;;;12.67;83.33;102005.75;5086503;28;20143;-66
2021/10/27 03:06:39;;;;;;;14.73;5.45;;;;;;;12.64;83.78;101998.06;5053629;28;20074;-66
2021/10/27 03:09:06;;;;;;;19.42;6.05;;;;;;;12.66;83.64;101995.22;5088122;28;20037;-66
2021/10/27 03:11:33;;;;;;;16.80;5.82;;;;;;;12.59;83.57;101997.63;5086265;28;20485;-66
2021/10/27 03:14:00;;;;;;;17.95;5.80;;;;;;;12.63;83.75;102001.69;5060099;28;20044;-66
2021/10/27 03:16:27;;;;;;;18.10;5.60;;;;;;;12.65;83.72;102004.22;5087450;28;20044;-66
2021/10/27 03:18:53;;;;;;;14.18;5.47;;;;;;;12.64;83.59;102002.53;5083579;28;20036;-66
2021/10/27 03:21:20;;;;;;;15.68;5.50;;;;;;;12.66;83.55;102005.88;5073348;28;20044;-66
2021/10/27 03:23:47;;;;;;;22.58;5.68;;;;;;;12.63;83.61;102004.34;5074410;28;20040;-64
2021/10/27 03:26:14;;;;;;;23.88;5.95;;;;;;;12.63;83.45;102003.53;5073278;28;20041;-66
2021/10/27 03:28:40;;;;;;;17.48;5.63;;;;;;;12.59;84.02;102010.94;5073436;28;20059;-64
2021/10/27 03:31:07;;;;;;;12.85;5.40;;;;;;;12.58;83.63;102019.06;5060918;28;20056;-66
2021/10/27 03:33:35;;;;;;;18.17;5.70;;;;;;;12.52;83.89;102011.63;5053301;28;20037;-65
2021/10/27 03:36:01;;;;;;;15.88;5.70;;;;;;;12.54;83.83;102014.97;5036601;28;20433;-66
2021/10/27 03:38:28;;;;;;;15.07;5.38;;;;;;;12.52;83.72;102007.13;5053321;28;20071;-66
2021/10/27 03:40:55;;;;;;;15.43;6.10;;;;;;;12.58;83.47;102016.38;5053119;28;20044;-66
2021/10/27 03:43:22;;;;;;;16.45;5.70;;;;;;;12.53;83.80;102008.78;5054263;28;20040;-66
2021/10/27 03:45:48;;;;;;;20.45;5.72;;;;;;;12.55;83.65;102012.19;5053272;28;20111;-66
2021/10/27 03:48:15;;;;;;;15.18;5.65;;;;;;;12.57;84.02;102020.88;5058985;28;20127;-66
2021/10/27 03:50:42;;;;;;;18.48;5.60;;;;;;;12.56;83.52;102011.19;5074472;28;20052;-65
2021/10/27 03:53:09;;;;;;;19.98;5.63;;;;;;;12.62;83.40;102010.63;5061547;28;20045;-66
2021/10/27 03:55:36;;;;;;;19.38;5.80;;;;;;;12.56;83.61;102005.03;5098081;28;20037;-66
2021/10/27 03:58:03;;;;;;;12.98;5.85;;;;;;;12.59;83.90;102005.63;5031651;28;20041;-66
2021/10/27 04:00:30;;;;;;;16.75;5.85;;;;;;;12.55;83.55;102014.00;5055311;28;20429;-66
2021/10/27 04:02:57;;;;;;;14.95;5.72;;;;;;;12.58;83.91;102019.88;5071073;28;20037;-66
2021/10/27 04:05:24;;;;;;;15.68;5.72;;;;;;;12.63;83.19;102022.97;5071086;28;20409;-66
2021/10/27 04:07:51;;;;;;;15.50;5.53;;;;;;;12.53;83.33;102021.28;5073265;28;20048;-66
2021/10/27 04:10:19;;;;;;;12.88;6.00;;;;;;;12.61;83.29;102018.78;5073666;28;20047;-66
2021/10/27 04:12:46;;;;;;;16.63;5.82;;;;;;;12.59;83.70;102020.75;5072363;28;20044;-66
2021/10/27 04:15:13;;;;;;;18.35;6.35;;;;;;;12.54;84.01;102014.97;5073868;28;20040;-66
2021/10/27 04:17:41;;;;;;;17.63;6.07;;;;;;;12.57;83.85;102020.88;5072563;28;20040;-66
2021/10/27 04:20:09;;;;;;;16.45;5.93;;;;;;;12.62;83.85;102025.78;5073957;28;20466;-66
2021/10/27 04:22:39;;;;;;;17.90;5.97;;;;;;;12.56;83.54;102019.19;5064040;28;20052;-66
2021/10/27 04:25:08;;;;;;;22.08;6.85;;;;;;;12.59;83.35;102023.41;5044472;28;20033;-66
2021/10/27 04:27:35;;;;;;;14.77;5.57;;;;;;;12.58;83.23;102032.38;5062082;28;20593;-66
2021/10/27 04:30:03;;;;;;;24.60;6.18;;;;;;;12.52;83.41;102027.59;5071049;28;20048;-68
2021/10/27 04:32:31;;;;;;;19.48;7.82;;;;;;;12.63;83.07;102027.47;5069734;28;20119;-66
2021/10/27 04:34:57;;;;;;;15.95;6.07;;;;;;;12.68;82.78;102038.56;5071609;28;20097;-66
2021/10/27 04:37:26;;;;;;;16.23;6.72;;;;;;;12.52;83.24;102039.06;5051668;28;20045;-66
2021/10/27 04:39:53;;;;;;;17.58;6.57;;;;;;;12.48;83.55;102037.66;5068938;28;20048;-64
2021/10/27 04:42:19;;;;;;;15.43;6.40;;;;;;;12.44;83.94;102031.78;5072603;28;20041;-66
2021/10/27 04:44:46;;;;;;;14.07;6.38;;;;;;;12.49;83.62;102026.84;5101628;28;20499;-66
2021/10/27 04:47:13;;;;;;;20.95;6.75;;;;;;;12.55;82.84;102027.28;5051438;28;20141;-66
2021/10/27 04:49:39;;;;;;;20.08;7.05;;;;;;;12.52;83.38;102023.09;5059514;28;20048;-67
2021/10/27 04:52:06;;;;;;;19.90;7.45;;;;;;;12.50;83.92;102017.06;5071463;28;20044;-66
2021/10/27 04:54:33;;;;;;;20.02;6.72;;;;;;;12.51;82.83;102021.41;5072272;28;20040;-66
2021/10/27 04:57:00;;;;;;;17.63;7.20;;;;;;;12.53;83.06;102031.91;5071394;28;20048;-67
2021/10/27 04:59:35;;;;;;;14.90;6.60;;;;;;;12.59;82.41;102028.72;5072257;28;20401;-66
2021/10/27 05:02:03;;;;;;;18.38;6.93;;;;;;;12.57;82.56;102028.88;5050951;28;20059;-66
2021/10/27 05:04:30;;;;;;;19.00;6.40;;;;;;;12.47;83.04;102036.81;5050339;28;20132;-66
2021/10/27 05:06:56;;;;;;;17.98;6.38;;;;;;;12.55;82.92;102038.81;5052207;28;20045;-66
2021/10/27 05:09:25;;;;;;;17.73;7.07;;;;;;;12.55;83.19;102037.94;5052467;28;20095;-67
2021/10/27 05:11:52;;;;;;;18.83;6.80;;;;;;;12.57;82.40;102036.84;5052969;28;20059;-66
2021/10/27 05:14:19;;;;;;;15.23;6.38;;;;;;;12.61;81.88;102037.41;5052812;28;20083;-66
2021/10/27 05:16:46;;;;;;;19.63;6.90;;;;;;;12.60;82.29;102036.56;5072025;28;20051;-66
2021/10/27 05:19:13;;;;;;;19.13;5.88;;;;;;;12.54;82.48;102038.94;5070721;28;20098;-66
2021/10/27 05:21:39;;;;;;;19.20;6.72;;;;;;;12.58;81.95;102032.38;5071526;28;20133;-66
2021/10/27 05:24:06;;;;;;;21.08;6.30;;;;;;;12.52;82.55;102027.59;5071843;28;20378;-66
2021/10/27 05:26:33;;;;;;;23.85;6.65;;;;;;;12.50;83.30;102027.72;5072463;28;20518;-66
2021/10/27 05:28:59;;;;;;;15.27;6.50;;;;;;;12.52;82.15;102027.59;5072498;28;20101;-66
2021/10/27 05:31:26;;;;;;;22.95;6.85;;;;;;;12.51;82.27;102028.56;5071313;28;20128;-65
2021/10/27 05:33:53;;;;;;;19.85;6.60;;;;;;;12.48;82.71;102027.84;5069572;28;20516;-65
2021/10/27 05:36:20;;;;;;;23.55;6.07;;;;;;;12.51;82.31;102025.91;5056888;28;20509;-66
2021/10/27 05:38:46;;;;;;;22.27;6.25;;;;;;;12.49;82.65;102016.22;5050375;28;20052;-66
2021/10/27 05:41:13;;;;;;;18.63;7.13;;;;;;;12.51;82.89;102021.41;5058557;28;20041;-65
2021/10/27 05:43:42;;;;;;;19.20;6.97;;;;;;;12.55;82.30;102021.97;5071780;28;20036;-66
2021/10/27 05:46:09;;;;;;;20.67;6.35;;;;;;;12.55;81.93;102025.50;5071533;28;20052;-65
2021/10/27 05:48:40;;;;;;;17.75;6.88;;;;;;;12.49;82.26;102028.69;5071518;28;20037;-65
2021/10/27 05:56:30;;;;;;;20.20;6.72;;;;;;;12.53;82.28;102032.75;5087610;28;20119;-66
2021/10/27 05:58:56;;;;;;;25.15;6.97;;;;;;;12.49;81.74;102029.53;5089272;28;20456;-66
2021/10/27 06:01:23;;;;;;;19.05;6.80;;;;;;;12.54;81.14;102029.13;5088238;28;20124;-66
2021/10/27 06:03:50;;;;;;;22.67;7.28;;;;;;;12.50;82.23;102033.03;5085745;28;20090;-65
2021/10/27 06:06:17;;;;;;;22.65;6.78;;;;;;;12.51;81.99;102034.72;5087815;28;20037;-66
2021/10/27 06:08:43;;;;;;;16.33;6.90;;;;;;;12.67;80.84;102037.69;5088243;28;20040;-66
2021/10/27 06:11:13;;;;;;;17.08;6.78;;;;;;;12.59;80.94;102045.53;5071252;28;20135;-66
2021/10/27 06:13:45;;;;;;;18.50;7.00;;;;;;;12.53;82.09;102038.06;5078749;28;20049;-66
2021/10/27 06:16:14;;;;;;;18.00;7.57;;;;;;;12.60;81.42;102044.53;5060756;28;20048;-66
2021/10/27 06:18:42;;;;;;;24.23;8.20;;;;;;;12.58;81.43;102043.84;5050466;28;20053;-66
2021/10/27 06:21:12;;;;;;;24.05;9.70;;;;;;;12.65;80.76;102044.16;5074615;28;20102;-66
2021/10/27 06:23:40;;;;;;;22.33;8.10;;;;;;;12.64;80.85;102051.31;5057754;28;20042;-66
2021/10/27 06:26:07;;;;;;;23.45;8.43;;;;;;;12.57;80.92;102052.81;5068050;28;20071;-66
2021/10/27 06:28:43;;;;;;;24.10;8.43;;;;;;;12.60;81.63;102052.53;5054347;28;20095;-66
2021/10/27 06:31:19;;;;;;;22.45;7.50;;;;;;;12.64;80.70;102056.63;5064666;28;20036;-66
2021/10/27 06:33:55;;;;;;;21.33;7.20;;;;;;;12.62;81.16;102061.22;5067038;28;20047;-66
2021/10/27 06:39:10;;;;;;;19.70;6.70;;;;;;;12.63;80.74;102062.09;5068614;28;20044;-66
2021/10/27 06:45:58;;;;;;;17.45;6.18;;;;;;;12.64;80.58;102069.94;5068167;28;20500;-66
2021/10/27 06:47:10;;;;;;;17.05;5.57;;;;;;;12.70;80.25;102075.69;5054706;28;20049;-66
2021/10/27 06:49:37;;;;;;;18.42;5.93;;;;;;;12.64;79.56;102074.41;5066567;28;20098;-66
2021/10/27 06:52:04;;;;;;;20.40;5.70;;;;;;;12.52;80.24;102072.84;5066560;28;20397;-66
2021/10/27 06:54:30;;;;;;;21.75;6.78;;;;;;;12.59;80.54;102071.31;5053019;28;20072;-66
2021/10/27 06:56:57;;;;;;;13.95;5.70;;;;;;;12.67;79.74;102082.13;5066780;28;20065;-66
2021/10/27 06:59:33;;;;;;;23.10;6.25;;;;;;;12.61;80.09;102082.69;5067764;28;20051;-65
2021/10/27 07:15:37;;;;;;;14.48;5.70;;;;;;;12.68;79.27;102084.66;5109637;28;20484;-67
2021/10/27 07:18:05;;;;;;;18.38;5.78;;;;;;;12.63;79.20;102094.03;5112977;28;20450;-66
2021/10/27 07:20:31;;;;;;;15.00;6.05;;;;;;;12.68;79.17;102095.31;5115002;28;20048;-66
2021/10/27 07:23:00;;;;;;;16.40;6.28;;;;;;;12.65;79.76;102092.06;5095295;28;20098;-66
2021/10/27 07:25:32;;;;;;;17.25;6.00;;;;;;;12.70;80.07;102099.63;5120427;28;20035;-64
2021/10/27 07:27:59;;;;;;;13.45;5.60;;;;;;;12.74;79.56;102101.06;5118032;27;20040;-64
2021/10/27 07:30:26;;;;;;;17.35;5.95;;;;;;;12.79;78.82;102097.03;5119336;27;20043;-65
2021/10/27 07:32:55;;;;;;;18.42;6.28;;;;;;;12.78;79.29;102100.66;5116068;27;20040;-64
2021/10/27 07:35:45;;;;;;;17.30;5.97;;;;;;;12.81;79.08;102097.72;5116772;28;20035;-65
2021/10/27 07:40:57;;;;;;;19.50;6.00;;;;;;;12.73;78.56;102116.19;5116275;27;20044;-65
2021/10/27 07:43:27;;;;;;;16.23;5.97;;;;;;;12.86;77.63;102108.81;5116100;28;20039;-65
2021/10/27 07:45:54;;;;;;;15.18;5.85;;;;;;;12.78;78.32;102113.13;5097306;28;20489;-65
2021/10/27 07:48:22;;;;;;;17.67;7.20;;;;;;;12.74;78.52;102123.22;5115378;28;20097;-65
2021/10/27 07:50:49;;;;;;;17.42;5.32;;;;;;;12.66;78.16;102121.22;5123923;27;20065;-65
2021/10/27 07:53:16;;;;;;;14.50;6.05;;;;;;;12.72;77.56;102125.16;5112196;28;20040;-65
2021/10/27 07:55:44;;;;;;;14.90;5.20;;;;;;;12.73;77.82;102120.69;5085145;28;20036;-65
2021/10/27 07:58:13;;;;;;;17.35;5.65;;;;;;;12.77;77.72;102125.63;5121272;28;20496;-65
2021/10/27 08:00:41;;;;;;;15.82;5.22;;;;;;;12.75;77.44;102129.38;5110909;28;20047;-65
2021/10/27 08:03:08;;;;;;;15.48;5.32;;;;;;;12.74;77.83;102130.38;5109137;28;20059;-65
2021/10/27 08:05:39;;;;;;;14.43;4.97;;;;;;;12.78;77.11;102119.28;5098875;28;20075;-65
2021/10/27 08:08:08;;;;;;;15.00;4.68;;;;;;;12.68;77.65;102132.59;5108192;27;20141;-65
2021/10/27 08:10:35;;;;;;;14.30;5.88;;;;;;;12.68;78.54;102132.59;5099837;28;20063;-65
2021/10/27 08:13:03;;;;;;;16.25;4.80;;;;;;;12.72;78.41;102125.16;5101739;28;20040;-65
2021/10/27 08:15:32;;;;;;;20.17;5.13;;;;;;;12.76;77.70;102129.25;5094706;28;20040;-66
2021/10/27 08:18:00;;;;;;;12.20;4.70;;;;;;;12.77;78.58;102128.28;5087737;28;20094;-65
2021/10/27 08:20:28;;;;;;;11.20;4.25;;;;;;;12.81;77.53;102124.34;5100407;28;20035;-65
2021/10/27 08:23:00;;;;;;;14.00;5.63;;;;;;;12.88;77.88;102124.66;5082724;28;20110;-65
2021/10/27 08:25:34;;;;;;;;;;;;;;;12.99;76.82;102124.56;5069932;28;20040;-65
2021/10/27 08:28:06;;;;;;;14.77;6.10;;;;;;;12.86;76.58;102121.28;5085394;28;19947;-65
2021/10/27 08:30:45;;;;;;;18.98;4.63;;;;;;;12.82;76.89;102125.19;5081071;28;20044;-66
2021/10/27 08:33:22;;;;;;;12.88;4.82;;;;;;;12.94;77.22;102128.59;5085716;28;20074;-65
2021/10/27 08:35:49;;;;;;;16.00;4.88;;;;;;;12.91;76.58;102135.03;5081852;28;20040;-66
2021/10/27 08:38:16;;;;;;;16.45;4.45;;;;;;;13.02;76.30;102136.75;5074608;28;20051;-65
2021/10/27 08:40:44;;;;;;;14.35;4.72;;;;;;;12.90;76.54;102135.16;5088056;28;20497;-65
2021/10/27 08:43:12;;;;;;;20.38;4.68;;;;;;;12.96;76.99;102127.47;5067484;28;20044;-65
2021/10/27 08:45:39;;;;;;;18.23;4.72;;;;;;;13.10;76.54;102136.91;5107299;28;20774;-66
2021/10/27 08:48:10;;;;;;;14.50;5.20;;;;;;;13.13;75.38;102133.13;5098682;28;20085;-66
2021/10/27 08:50:38;;;;;;;16.50;4.63;;;;;;;13.12;75.35;102132.28;5091482;28;20040;-66
2021/10/27 08:53:06;;;;;;;14.55;4.40;;;;;;;13.05;75.84;102133.81;5080687;28;20044;-66
2021/10/27 08:55:35;;;;;;;14.60;4.70;;;;;;;13.08;75.92;102138.88;5084684;28;20086;-66
2021/10/27 08:58:02;;;;;;;11.20;4.97;;;;;;;13.15;75.22;102125.84;5097281;28;20480;-66
2021/10/27 09:00:39;;;;;;;14.70;4.18;;;;;;;13.13;75.51;102125.97;5083442;28;20044;-66
2021/10/27 09:03:13;;;;;;;15.30;4.50;;;;;;;13.18;75.79;102131.75;5095756;27;20405;-66
2021/10/27 09:05:52;;;;;;;13.25;4.95;;;;;;;13.13;75.51;102122.47;5116738;27;20046;-66
2021/10/27 09:08:50;;;;;;;14.02;4.60;;;;;;;13.15;75.95;102132.03;5097173;28;20130;-67
2021/10/27 09:35:07;;;;;;;15.55;4.50;;;;;;;13.18;75.44;102142.41;5047715;28;20084;-64
2021/10/27 09:44:16;;;;;;;24.15;4.60;;;;;;;13.35;75.75;102130.28;5061992;28;20053;-64
2021/10/27 09:47:01;;;;;;;19.88;5.15;;;;;;;13.41;75.89;102131.53;5033715;28;20053;-64
2021/10/27 10:04:28;;;;;;;11.35;4.25;;;;;;;13.92;74.67;102111.72;5043937;28;20184;-65
2021/10/27 10:07:11;;;;;;;9.95;4.18;;;;;;;14.10;73.71;102122.53;5025090;28;20068;-65
2021/10/27 10:09:53;;;;;;;15.73;4.72;;;;;;;14.26;73.71;102113.91;5054146;28;20096;-65
2021/10/27 10:12:38;;;;;;;17.35;4.70;;;;;;;14.27;72.95;102117.41;5042294;28;20033;-65
2021/10/27 10:15:18;;;;;;;15.43;4.05;;;;;;;14.29;71.98;102110.09;5047084;28;20041;-65
2021/10/27 10:17:55;;;;;;;14.32;4.35;;;;;;;14.43;72.99;102120.31;5029524;28;20562;-65
2021/10/27 10:20:36;;;;;;;14.25;4.68;;;;;;;14.46;72.76;102112.03;5043426;28;20114;-66
2021/10/27 10:23:28;;;;;;;19.77;4.60;;;;;;;14.64;71.35;102114.78;5048874;28;20131;-65
2021/10/27 10:26:13;;;;;;;11.68;4.05;;;;;;;14.69;71.24;102119.69;5034938;28;20049;-65
2021/10/27 10:29:02;;;;;;;16.95;4.53;;;;;;;14.68;70.72;102120.66;5066129;28;20090;-65
2021/10/27 10:31:42;;;;;;;14.48;4.03;;;;;;;14.68;70.00;102115.31;5040016;28;20037;-66
2021/10/27 10:34:48;;;;;;;13.35;4.45;;;;;;;14.71;70.87;102112.38;5027256;28;20061;-66
2021/10/27 10:37:46;;;;;;;14.63;4.30;;;;;;;14.84;70.05;102117.34;5034880;28;20046;-66
2021/10/27 10:45:50;;;;;;;13.13;3.97;;;;;;;15.52;68.55;102107.06;5072635;28;20051;-65
2021/10/27 10:57:14;;;;;;;14.75;3.67;;;;;;;18.80;57.97;102095.41;5078661;28;20382;-66
2021/10/27 11:00:34;;;;;;;10.48;3.65;;;;;;;19.44;55.51;102099.75;5085126;28;20047;-68
2021/10/27 11:38:12;;;;;;;9.02;3.28;;;;;;;21.15;49.51;102060.31;5125061;27;20067;-68
2021/10/27 11:40:42;;;;;;;9.38;3.08;;;;;;;20.92;49.43;102058.66;5104327;28;20046;-67
2021/10/27 11:58:55;;;;;;;11.63;3.13;;;;;;;19.78;52.08;102045.50;6186285;22;1365569;-66
2021/10/27 12:01:41;;;;;;;8.82;2.97;;;;;;;19.33;52.35;102039.97;6220958;23;20066;-67
2021/10/27 12:04:12;;;;;;;8.00;2.85;;;;;;;18.94;53.93;102038.25;6219262;23;20096;-66
2021/10/27 12:12:11;;;;;;;8.88;2.70;;;;;;;18.87;54.14;102033.75;6218913;23;20099;-67
2021/10/27 12:15:20;;;;;;;11.50;3.53;;;;;;;18.86;55.72;102032.06;6197331;23;20017;-67
2021/10/27 12:20:38;;;;;;;9.75;2.83;;;;;;;18.33;56.16;102027.25;5081497;27;1190681;-66
2021/10/27 12:23:16;;;;;;;11.18;2.80;;;;;;;18.32;57.52;102039.03;5109110;28;20044;-66
2021/10/27 12:25:43;;;;;;;11.15;2.85;;;;;;;18.00;57.25;102024.69;5093577;28;20051;-67
2021/10/27 12:28:33;;;;;;;12.32;3.20;;;;;;;17.77;57.98;102029.94;5089673;28;20047;-67
2021/10/27 12:31:21;;;;;;;14.43;2.95;;;;;;;17.66;59.61;102016.84;5093115;28;20130;-65
2021/10/27 12:33:50;;;;;;;12.93;3.17;;;;;;;17.48;59.12;102018.88;5091949;28;20047;-65
2021/10/27 12:36:34;;;;;;;10.30;2.95;;;;;;;17.67;60.00;102020.38;5096905;28;20404;-68
2021/10/27 12:39:22;;;;;;;13.43;3.42;;;;;;;17.78;59.69;102020.84;5090101;28;20036;-68
2021/10/27 12:42:08;;;;;;;11.98;2.88;;;;;;;18.05;58.64;102015.31;5105349;28;20122;-68
2021/10/27 12:44:46;;;;;;;11.85;2.97;;;;;;;18.02;58.09;102009.25;5105007;28;20133;-68
2021/10/27 12:47:20;;;;;;;10.98;2.92;;;;;;;17.80;59.51;102001.91;5105425;28;20120;-67
2021/10/27 12:50:01;;;;;;;14.48;2.88;;;;;;;17.72;59.32;101999.22;5106953;28;20032;-67
2021/10/27 12:52:35;;;;;;;14.97;3.20;;;;;;;18.22;58.67;102008.84;5100569;28;20041;-68
2021/10/27 12:55:20;;;;;;;14.70;3.00;;;;;;;18.84;57.20;101996.47;5103681;28;20032;-68
2021/10/27 12:58:11;;;;;;;9.50;2.40;;;;;;;19.33;54.02;101988.84;5087858;28;20411;-68
2021/10/27 13:00:57;;;;;;;9.27;2.30;;;;;;;19.44;52.48;101990.25;5086809;28;20050;-68
2021/10/27 13:03:53;;;;;;;9.45;2.58;;;;;;;19.35;52.43;101986.81;5079698;28;20394;-68
2021/10/27 13:22:40;;;;;;;15.57;2.75;;;;;;;17.57;57.24;101983.84;5103696;28;20127;-67
2021/10/27 13:30:59;;;;;;;13.88;2.60;;;;;;;17.50;58.54;101982.84;5084359;28;20565;-67
2021/10/27 13:33:26;;;;;;;14.70;3.55;;;;;;;17.31;59.31;101985.88;5079132;28;20559;-67
2021/10/27 13:35:55;;;;;;;11.35;2.65;;;;;;;17.34;58.72;101982.88;5099030;28;20115;-67
2021/10/27 13:38:25;;;;;;;10.82;2.90;;;;;;;17.20;59.79;101981.69;5086382;28;20127;-67
2021/10/27 13:40:51;;;;;;;10.93;2.47;;;;;;;17.16;59.61;101983.03;5107845;28;20059;-67
2021/10/27 13:43:26;;;;;;;11.52;3.88;;;;;;;17.02;59.77;101984.53;5084575;28;20039;-67
2021/10/27 13:46:15;;;;;;;10.35;2.40;;;;;;;17.00;61.17;101973.97;5092648;28;20120;-67
2021/10/27 14:06:20;;;;;;;12.07;4.10;;;;;;;17.35;59.60;101965.75;5095038;28;20032;-67
2021/10/27 14:08:22;;;;;;;11.32;3.08;;;;;;;17.31;60.04;101967.94;5090237;28;20044;-67
2021/10/27 14:11:02;;;;;;;13.00;2.88;;;;;;;17.28;59.86;101965.56;5104746;28;20044;-67
2021/10/27 14:13:41;;;;;;;11.73;2.97;;;;;;;17.21;60.38;101962.75;5106336;28;20046;-67
2021/10/27 15:21:27;;;;;;;10.93;2.80;;;;;;;16.66;62.63;101925.81;5059434;28;20123;-67
2021/10/27 15:24:05;;;;;;;12.80;2.72;;;;;;;16.68;61.47;101923.81;5029536;28;20045;-66
2021/10/27 15:29:29;;;;;;;9.68;2.60;;;;;;;16.44;63.11;101922.75;5036874;28;20115;-66
2021/10/27 15:32:31;;;;;;;14.48;3.00;;;;;;;16.37;63.80;101926.25;5070132;28;20064;-66
2021/10/27 15:35:01;;;;;;;12.55;2.30;;;;;;;16.67;62.28;101927.50;5061266;28;21014;-66
2021/10/27 15:40:26;;;;;;;11.32;2.47;;;;;;;16.49;62.42;101924.97;5037544;28;20044;-66
2021/10/27 15:50:31;;;;;;;11.93;2.80;;;;;;;16.26;63.76;101919.38;5051896;28;20048;-66
2021/10/27 15:55:11;;;;;;;7.90;2.35;;;;;;;15.87;66.24;101923.41;5057542;28;20116;-67
2021/10/27 15:57:38;;;;;;;9.88;2.60;;;;;;;15.83;66.33;101931.94;5056096;28;20045;-67
2021/10/27 16:00:31;;;;;;;16.55;3.42;;;;;;;15.84;65.59;101936.28;5049445;28;20043;-65